sensor_id;sensor_type;location;lat;lon;timestamp;P1;durP1;ratioP1;P2;durP2;ratioP2
30335;SDS011;17142;47.990;7.846;2022-12-13T06:34:03;27.60;;;15.57;;
30335;SDS011;17142;47.990;7.846;2022-12-13T06:36:31;21.00;;;13.05;;
30335;SDS011;17142;47.990;7.846;2022-12-13T06:39:00;18.17;;;9.80;;
30335;SDS011;17142;47.990;7.846;2022-12-13T06:41:27;27.00;;;12.50;;
30335;SDS011;17142;47.990;7.846;2022-12-13T06:43:55;25.77;;;14.15;;
30335;SDS011;17142;47.990;7.846;2022-12-13T06:46:21;21.93;;;13.03;;
30335;SDS011;17142;47.990;7.846;2022-12-13T06:48:46;29.60;;;15.60;;
30335;SDS011;17142;47.990;7.846;2022-12-13T06:51:12;24.92;;;14.35;;
30335;SDS011;17142;47.990;7.846;2022-12-13T06:53:39;29.30;;;12.53;;
30335;SDS011;17142;47.990;7.846;2022-12-13T06:56:06;27.58;;;13.65;;
30335;SDS011;17142;47.990;7.846;2022-12-13T06:58:33;26.35;;;14.60;;
30335;SDS011;17142;47.990;7.846;2022-12-13T07:03:34;25.38;;;13.38;;
30335;SDS011;17142;47.990;7.846;2022-12-13T07:06:04;29.75;;;15.02;;
30335;SDS011;17142;47.990;7.846;2022-12-13T07:08:37;24.35;;;12.30;;
30335;SDS011;17142;47.990;7.846;2022-12-13T07:11:04;21.65;;;12.52;;
30335;SDS011;17142;47.990;7.846;2022-12-13T07:13:30;28.60;;;13.02;;
30335;SDS011;17142;47.990;7.846;2022-12-13T07:15:57;28.67;;;14.90;;
30335;SDS011;17142;47.990;7.846;2022-12-13T07:18:23;27.37;;;12.17;;
30335;SDS011;17142;47.990;7.846;2022-12-13T07:20:51;27.23;;;12.27;;
30335;SDS011;17142;47.990;7.846;2022-12-13T07:23:16;21.23;;;11.93;;
30335;SDS011;17142;47.990;7.846;2022-12-13T07:25:49;22.57;;;11.37;;
30335;SDS011;17142;47.990;7.846;2022-12-13T07:28:17;24.83;;;12.80;;
30335;SDS011;17142;47.990;7.846;2022-12-13T07:30:43;27.00;;;13.93;;
30335;SDS011;17142;47.990;7.846;2022-12-13T07:33:08;22.10;;;14.30;;
30335;SDS011;17142;47.990;7.846;2022-12-13T07:35:37;29.05;;;12.57;;
30335;SDS011;17142;47.990;7.846;2022-12-13T07:38:05;26.23;;;12.77;;
30335;SDS011;17142;47.990;7.846;2022-12-13T07:40:32;26.92;;;14.30;;
30335;SDS011;17142;47.990;7.846;2022-12-13T07:42:59;23.80;;;13.05;;
30335;SDS011;17142;47.990;7.846;2022-12-13T07:45:24;24.00;;;13.30;;
30335;SDS011;17142;47.990;7.846;2022-12-13T07:47:50;21.13;;;12.07;;
30335;SDS011;17142;47.990;7.846;2022-12-13T07:50:16;27.87;;;14.70;;
30335;SDS011;17142;47.990;7.846;2022-12-13T07:52:47;30.73;;;14.85;;
30335;SDS011;17142;47.990;7.846;2022-12-13T07:55:14;22.08;;;12.68;;
30335;SDS011;17142;47.990;7.846;2022-12-13T07:57:40;24.77;;;13.45;;
30335;SDS011;17142;47.990;7.846;2022-12-13T08:00:06;27.80;;;14.00;;
30335;SDS011;17142;47.990;7.846;2022-12-13T08:02:32;36.90;;;16.00;;
30335;SDS011;17142;47.990;7.846;2022-12-13T08:04:58;22.97;;;12.80;;
30335;SDS011;17142;47.990;7.846;2022-12-13T08:07:23;24.53;;;14.70;;
30335;SDS011;17142;47.990;7.846;2022-12-13T08:09:51;37.58;;;16.05;;
30335;SDS011;17142;47.990;7.846;2022-12-13T08:12:19;32.30;;;15.63;;
30335;SDS011;17142;47.990;7.846;2022-12-13T08:14:45;40.83;;;19.70;;
30335;SDS011;17142;47.990;7.846;2022-12-13T08:17:10;32.33;;;17.03;;
30335;SDS011;17142;47.990;7.846;2022-12-13T08:19:36;31.35;;;15.68;;
30335;SDS011;17142;47.990;7.846;2022-12-13T08:22:02;26.07;;;13.40;;
30335;SDS011;17142;47.990;7.846;2022-12-13T08:24:28;28.33;;;13.87;;
30335;SDS011;17142;47.990;7.846;2022-12-13T08:26:56;26.70;;;13.75;;
30335;SDS011;17142;47.990;7.846;2022-12-13T08:29:26;27.13;;;13.77;;
30335;SDS011;17142;47.990;7.846;2022-12-13T08:31:52;19.77;;;12.93;;
30335;SDS011;17142;47.990;7.846;2022-12-13T08:34:18;30.47;;;15.67;;
30335;SDS011;17142;47.990;7.846;2022-12-13T08:36:48;31.85;;;16.35;;
30335;SDS011;17142;47.990;7.846;2022-12-13T08:39:14;26.87;;;13.97;;
30335;SDS011;17142;47.990;7.846;2022-12-13T08:41:39;26.70;;;13.30;;
30335;SDS011;17142;47.990;7.846;2022-12-13T08:44:05;26.43;;;13.80;;
30335;SDS011;17142;47.990;7.846;2022-12-13T08:46:33;25.07;;;13.80;;
30335;SDS011;17142;47.990;7.846;2022-12-13T08:48:58;24.63;;;13.50;;
30335;SDS011;17142;47.990;7.846;2022-12-13T08:51:24;28.87;;;16.40;;
30335;SDS011;17142;47.990;7.846;2022-12-13T08:53:50;29.60;;;15.60;;
30335;SDS011;17142;47.990;7.846;2022-12-13T08:56:18;24.48;;;14.75;;
30335;SDS011;17142;47.990;7.846;2022-12-13T08:58:47;28.98;;;16.25;;
30335;SDS011;17142;47.990;7.846;2022-12-13T09:01:16;27.30;;;12.63;;
30335;SDS011;17142;47.990;7.846;2022-12-13T09:03:42;26.92;;;14.60;;
30335;SDS011;17142;47.990;7.846;2022-12-13T09:06:08;22.87;;;12.63;;
30335;SDS011;17142;47.990;7.846;2022-12-13T09:08:37;41.05;;;18.80;;
30335;SDS011;17142;47.990;7.846;2022-12-13T09:11:03;30.00;;;15.68;;
30335;SDS011;17142;47.990;7.846;2022-12-13T09:13:31;28.77;;;16.70;;
30335;SDS011;17142;47.990;7.846;2022-12-13T09:18:36;28.35;;;15.40;;
30335;SDS011;17142;47.990;7.846;2022-12-13T09:21:06;27.50;;;14.60;;
30335;SDS011;17142;47.990;7.846;2022-12-13T09:23:35;29.40;;;17.02;;
30335;SDS011;17142;47.990;7.846;2022-12-13T09:26:04;32.10;;;16.25;;
30335;SDS011;17142;47.990;7.846;2022-12-13T09:28:29;32.60;;;14.57;;
30335;SDS011;17142;47.990;7.846;2022-12-13T09:30:55;29.57;;;15.60;;
30335;SDS011;17142;47.990;7.846;2022-12-13T09:33:23;31.67;;;15.63;;
30335;SDS011;17142;47.990;7.846;2022-12-13T09:35:49;26.10;;;13.97;;
30335;SDS011;17142;47.990;7.846;2022-12-13T09:38:16;28.70;;;16.75;;
30335;SDS011;17142;47.990;7.846;2022-12-13T09:40:42;30.80;;;16.17;;
30335;SDS011;17142;47.990;7.846;2022-12-13T09:43:20;28.75;;;17.73;;
30335;SDS011;17142;47.990;7.846;2022-12-13T09:45:52;28.83;;;14.52;;
30335;SDS011;17142;47.990;7.846;2022-12-13T09:48:19;30.90;;;16.23;;
30335;SDS011;17142;47.990;7.846;2022-12-13T09:50:46;25.85;;;14.77;;
30335;SDS011;17142;47.990;7.846;2022-12-13T09:53:16;31.33;;;17.80;;
30335;SDS011;17142;47.990;7.846;2022-12-13T09:55:44;29.73;;;17.20;;
30335;SDS011;17142;47.990;7.846;2022-12-13T09:58:19;25.98;;;15.35;;
30335;SDS011;17142;47.990;7.846;2022-12-13T10:00:51;36.50;;;18.65;;
30335;SDS011;17142;47.990;7.846;2022-12-13T10:03:19;42.67;;;17.50;;
30335;SDS011;17142;47.990;7.846;2022-12-13T10:05:59;29.95;;;16.70;;
30335;SDS011;17142;47.990;7.846;2022-12-13T10:08:43;27.23;;;15.27;;
30335;SDS011;17142;47.990;7.846;2022-12-13T10:11:15;33.15;;;16.17;;
30335;SDS011;17142;47.990;7.846;2022-12-13T10:13:43;35.88;;;17.40;;
30335;SDS011;17142;47.990;7.846;2022-12-13T10:16:17;30.50;;;16.55;;
30335;SDS011;17142;47.990;7.846;2022-12-13T10:18:55;27.52;;;15.52;;
30335;SDS011;17142;47.990;7.846;2022-12-13T10:21:23;28.00;;;14.83;;
30335;SDS011;17142;47.990;7.846;2022-12-13T10:23:52;29.08;;;17.27;;
30335;SDS011;17142;47.990;7.846;2022-12-13T10:26:19;24.90;;;15.43;;
30335;SDS011;17142;47.990;7.846;2022-12-13T10:28:45;32.63;;;16.65;;
30335;SDS011;17142;47.990;7.846;2022-12-13T10:31:17;28.10;;;14.77;;
30335;SDS011;17142;47.990;7.846;2022-12-13T10:33:50;35.67;;;16.75;;
30335;SDS011;17142;47.990;7.846;2022-12-13T10:36:33;24.92;;;14.30;;
30335;SDS011;17142;47.990;7.846;2022-12-13T10:39:02;28.77;;;13.93;;
30335;SDS011;17142;47.990;7.846;2022-12-13T10:46:36;24.73;;;13.90;;
30335;SDS011;17142;47.990;7.846;2022-12-13T10:49:24;26.90;;;17.00;;
30335;SDS011;17142;47.990;7.846;2022-12-13T10:51:53;29.48;;;15.82;;
30335;SDS011;17142;47.990;7.846;2022-12-13T10:54:29;26.55;;;14.50;;
30335;SDS011;17142;47.990;7.846;2022-12-13T10:56:57;25.55;;;15.38;;
30335;SDS011;17142;47.990;7.846;2022-12-13T11:02:01;21.75;;;12.48;;
30335;SDS011;17142;47.990;7.846;2022-12-13T11:04:50;24.00;;;14.25;;
30335;SDS011;17142;47.990;7.846;2022-12-13T11:09:51;25.30;;;13.35;;
30335;SDS011;17142;47.990;7.846;2022-12-13T11:12:21;25.10;;;13.47;;
30335;SDS011;17142;47.990;7.846;2022-12-13T11:17:25;26.45;;;15.18;;
30335;SDS011;17142;47.990;7.846;2022-12-13T11:20:03;23.15;;;13.63;;
30335;SDS011;17142;47.990;7.846;2022-12-13T11:22:35;35.20;;;15.68;;
30335;SDS011;17142;47.990;7.846;2022-12-13T11:33:49;23.67;;;14.75;;
30335;SDS011;17142;47.990;7.846;2022-12-13T11:39:27;31.33;;;14.93;;
30335;SDS011;17142;47.990;7.846;2022-12-13T11:47:43;25.63;;;14.43;;
30335;SDS011;17142;47.990;7.846;2022-12-13T11:50:56;24.50;;;14.15;;
30335;SDS011;17142;47.990;7.846;2022-12-13T11:56:21;26.20;;;13.77;;
30335;SDS011;17142;47.990;7.846;2022-12-13T11:58:53;27.77;;;17.48;;
30335;SDS011;17142;47.990;7.846;2022-12-13T12:01:32;23.52;;;13.68;;
30335;SDS011;17142;47.990;7.846;2022-12-13T12:09:39;27.13;;;15.23;;
30335;SDS011;17142;47.990;7.846;2022-12-13T12:12:11;30.95;;;17.63;;
30335;SDS011;17142;47.990;7.846;2022-12-13T12:15:01;29.02;;;15.02;;
30335;SDS011;17142;47.990;7.846;2022-12-13T12:17:34;27.40;;;15.60;;
30335;SDS011;17142;47.990;7.846;2022-12-13T12:20:02;26.80;;;16.15;;
30335;SDS011;17142;47.990;7.846;2022-12-13T12:25:09;31.95;;;15.98;;
30335;SDS011;17142;47.990;7.846;2022-12-13T12:31:27;19.88;;;13.45;;
30335;SDS011;17142;47.990;7.846;2022-12-13T12:38:02;32.95;;;16.02;;
30335;SDS011;17142;47.990;7.846;2022-12-13T12:45:28;29.65;;;16.45;;
30335;SDS011;17142;47.990;7.846;2022-12-13T12:50:52;24.02;;;16.00;;
30335;SDS011;17142;47.990;7.846;2022-12-13T12:59:17;30.80;;;15.32;;
30335;SDS011;17142;47.990;7.846;2022-12-13T13:01:48;29.58;;;16.00;;
30335;SDS011;17142;47.990;7.846;2022-12-13T13:04:24;34.25;;;17.42;;
30335;SDS011;17142;47.990;7.846;2022-12-13T13:06:59;32.80;;;18.02;;
30335;SDS011;17142;47.990;7.846;2022-12-13T13:09:33;29.88;;;16.15;;
30335;SDS011;17142;47.990;7.846;2022-12-13T13:12:02;30.60;;;16.08;;
30335;SDS011;17142;47.990;7.846;2022-12-13T13:14:34;33.70;;;16.10;;
30335;SDS011;17142;47.990;7.846;2022-12-13T13:17:43;30.10;;;16.15;;
30335;SDS011;17142;47.990;7.846;2022-12-13T13:19:53;32.47;;;16.83;;
30335;SDS011;17142;47.990;7.846;2022-12-13T13:22:51;28.00;;;14.02;;
30335;SDS011;17142;47.990;7.846;2022-12-13T13:27:59;36.08;;;18.10;;
30335;SDS011;17142;47.990;7.846;2022-12-13T13:30:29;30.15;;;16.35;;
30335;SDS011;17142;47.990;7.846;2022-12-13T13:32:55;29.30;;;15.03;;
30335;SDS011;17142;47.990;7.846;2022-12-13T13:40:40;26.85;;;16.02;;
30335;SDS011;17142;47.990;7.846;2022-12-13T13:48:23;26.33;;;16.00;;
30335;SDS011;17142;47.990;7.846;2022-12-13T13:55:58;21.63;;;14.55;;
30335;SDS011;17142;47.990;7.846;2022-12-13T13:58:48;25.63;;;14.52;;
30335;SDS011;17142;47.990;7.846;2022-12-13T14:04:08;25.05;;;14.07;;
30335;SDS011;17142;47.990;7.846;2022-12-13T14:26:14;24.33;;;12.90;;
30335;SDS011;17142;47.990;7.846;2022-12-13T14:29:03;35.20;;;13.90;;
30335;SDS011;17142;47.990;7.846;2022-12-13T14:31:37;25.98;;;14.00;;
30335;SDS011;17142;47.990;7.846;2022-12-13T14:34:06;26.98;;;14.52;;
30335;SDS011;17142;47.990;7.846;2022-12-13T14:36:40;21.45;;;13.98;;
30335;SDS011;17142;47.990;7.846;2022-12-13T14:39:13;28.83;;;14.90;;
30335;SDS011;17142;47.990;7.846;2022-12-13T14:41:50;31.80;;;15.18;;
30335;SDS011;17142;47.990;7.846;2022-12-13T14:44:23;22.73;;;12.85;;
30335;SDS011;17142;47.990;7.846;2022-12-13T14:46:55;29.70;;;15.65;;
30335;SDS011;17142;47.990;7.846;2022-12-13T14:49:26;31.23;;;15.60;;
30335;SDS011;17142;47.990;7.846;2022-12-13T14:52:02;30.55;;;15.13;;
30335;SDS011;17142;47.990;7.846;2022-12-13T14:54:36;27.73;;;13.98;;
30335;SDS011;17142;47.990;7.846;2022-12-13T14:57:22;20.45;;;13.27;;
30335;SDS011;17142;47.990;7.846;2022-12-13T14:59:52;17.70;;;12.00;;
30335;SDS011;17142;47.990;7.846;2022-12-13T15:02:23;20.85;;;12.93;;
30335;SDS011;17142;47.990;7.846;2022-12-13T15:04:54;24.00;;;13.18;;
30335;SDS011;17142;47.990;7.846;2022-12-13T15:07:25;24.20;;;13.13;;
30335;SDS011;17142;47.990;7.846;2022-12-13T15:10:51;28.38;;;17.20;;
30335;SDS011;17142;47.990;7.846;2022-12-13T15:12:55;25.13;;;15.10;;
30335;SDS011;17142;47.990;7.846;2022-12-13T15:17:49;27.10;;;14.10;;
30335;SDS011;17142;47.990;7.846;2022-12-13T15:20:30;22.52;;;13.35;;
30335;SDS011;17142;47.990;7.846;2022-12-13T15:22:58;20.92;;;12.57;;
30335;SDS011;17142;47.990;7.846;2022-12-13T15:25:35;25.73;;;13.88;;
30335;SDS011;17142;47.990;7.846;2022-12-13T15:28:05;21.67;;;12.70;;
30335;SDS011;17142;47.990;7.846;2022-12-13T15:30:32;25.92;;;13.05;;
30335;SDS011;17142;47.990;7.846;2022-12-13T15:35:31;26.85;;;13.70;;
30335;SDS011;17142;47.990;7.846;2022-12-13T15:38:01;26.52;;;14.63;;
30335;SDS011;17142;47.990;7.846;2022-12-13T15:40:27;24.50;;;13.83;;
30335;SDS011;17142;47.990;7.846;2022-12-13T15:42:55;26.90;;;13.75;;
30335;SDS011;17142;47.990;7.846;2022-12-13T15:45:23;27.45;;;14.43;;
30335;SDS011;17142;47.990;7.846;2022-12-13T15:47:52;25.88;;;12.02;;
30335;SDS011;17142;47.990;7.846;2022-12-13T15:50:38;21.50;;;13.45;;
30335;SDS011;17142;47.990;7.846;2022-12-13T15:53:05;25.02;;;15.10;;
30335;SDS011;17142;47.990;7.846;2022-12-13T15:55:44;22.15;;;13.02;;
30335;SDS011;17142;47.990;7.846;2022-12-13T15:58:21;21.70;;;12.82;;
30335;SDS011;17142;47.990;7.846;2022-12-13T16:00:54;20.55;;;13.25;;
30335;SDS011;17142;47.990;7.846;2022-12-13T16:03:20;25.95;;;12.60;;
30335;SDS011;17142;47.990;7.846;2022-12-13T16:05:57;22.77;;;14.75;;
30335;SDS011;17142;47.990;7.846;2022-12-13T16:10:49;19.80;;;13.80;;
30335;SDS011;17142;47.990;7.846;2022-12-13T16:13:36;19.02;;;13.45;;
30335;SDS011;17142;47.990;7.846;2022-12-13T16:18:41;30.23;;;16.45;;
30335;SDS011;17142;47.990;7.846;2022-12-13T16:21:14;22.85;;;13.57;;
30335;SDS011;17142;47.990;7.846;2022-12-13T16:23:42;27.83;;;15.63;;
30335;SDS011;17142;47.990;7.846;2022-12-13T16:26:11;23.30;;;14.30;;
30335;SDS011;17142;47.990;7.846;2022-12-13T16:28:37;29.13;;;16.05;;
30335;SDS011;17142;47.990;7.846;2022-12-13T16:31:20;31.13;;;16.75;;
30335;SDS011;17142;47.990;7.846;2022-12-13T16:33:47;29.85;;;16.02;;
30335;SDS011;17142;47.990;7.846;2022-12-13T16:36:13;32.50;;;17.20;;
30335;SDS011;17142;47.990;7.846;2022-12-13T16:38:39;36.38;;;17.15;;
30335;SDS011;17142;47.990;7.846;2022-12-13T16:41:04;25.50;;;15.87;;
30335;SDS011;17142;47.990;7.846;2022-12-13T16:43:31;25.10;;;14.40;;
30335;SDS011;17142;47.990;7.846;2022-12-13T16:45:58;30.63;;;16.23;;
30335;SDS011;17142;47.990;7.846;2022-12-13T16:48:27;28.88;;;15.88;;
30335;SDS011;17142;47.990;7.846;2022-12-13T16:50:53;28.83;;;14.87;;
30335;SDS011;17142;47.990;7.846;2022-12-13T16:53:19;28.10;;;16.20;;
30335;SDS011;17142;47.990;7.846;2022-12-13T16:55:45;29.63;;;16.90;;
30335;SDS011;17142;47.990;7.846;2022-12-13T16:58:14;26.50;;;16.27;;
30335;SDS011;17142;47.990;7.846;2022-12-13T17:00:41;27.10;;;16.42;;
30335;SDS011;17142;47.990;7.846;2022-12-13T17:03:09;29.85;;;17.35;;
30335;SDS011;17142;47.990;7.846;2022-12-13T17:05:39;28.40;;;16.95;;
30335;SDS011;17142;47.990;7.846;2022-12-13T17:08:08;28.13;;;15.63;;
30335;SDS011;17142;47.990;7.846;2022-12-13T17:10:37;30.10;;;17.15;;
30335;SDS011;17142;47.990;7.846;2022-12-13T17:13:02;32.17;;;16.47;;
30335;SDS011;17142;47.990;7.846;2022-12-13T17:15:28;22.03;;;13.97;;
30335;SDS011;17142;47.990;7.846;2022-12-13T17:17:54;22.30;;;13.37;;
30335;SDS011;17142;47.990;7.846;2022-12-13T17:20:21;24.63;;;13.38;;
30335;SDS011;17142;47.990;7.846;2022-12-13T17:22:48;22.75;;;12.40;;
30335;SDS011;17142;47.990;7.846;2022-12-13T17:25:19;19.40;;;11.25;;
30335;SDS011;17142;47.990;7.846;2022-12-13T17:27:47;20.48;;;12.48;;
30335;SDS011;17142;47.990;7.846;2022-12-13T17:30:13;20.73;;;12.30;;
30335;SDS011;17142;47.990;7.846;2022-12-13T17:32:41;21.13;;;13.30;;
30335;SDS011;17142;47.990;7.846;2022-12-13T17:35:07;22.20;;;10.07;;
30335;SDS011;17142;47.990;7.846;2022-12-13T17:37:36;15.00;;;11.45;;
30335;SDS011;17142;47.990;7.846;2022-12-13T17:40:04;18.27;;;10.88;;
30335;SDS011;17142;47.990;7.846;2022-12-13T17:42:35;19.95;;;11.88;;
30335;SDS011;17142;47.990;7.846;2022-12-13T17:45:02;23.27;;;13.10;;
30335;SDS011;17142;47.990;7.846;2022-12-13T17:47:27;22.63;;;12.40;;
30335;SDS011;17142;47.990;7.846;2022-12-13T17:49:58;26.17;;;14.45;;
30335;SDS011;17142;47.990;7.846;2022-12-13T17:52:23;24.93;;;13.80;;
30335;SDS011;17142;47.990;7.846;2022-12-13T17:54:49;26.27;;;13.60;;
30335;SDS011;17142;47.990;7.846;2022-12-13T17:57:14;25.40;;;14.33;;
30335;SDS011;17142;47.990;7.846;2022-12-13T17:59:40;26.77;;;14.90;;
30335;SDS011;17142;47.990;7.846;2022-12-13T18:02:11;35.47;;;15.75;;
30335;SDS011;17142;47.990;7.846;2022-12-13T18:04:39;24.88;;;14.68;;
30335;SDS011;17142;47.990;7.846;2022-12-13T18:07:08;24.20;;;14.65;;
30335;SDS011;17142;47.990;7.846;2022-12-13T18:09:33;28.97;;;14.77;;
30335;SDS011;17142;47.990;7.846;2022-12-13T18:11:59;27.37;;;14.77;;
30335;SDS011;17142;47.990;7.846;2022-12-13T18:14:24;21.20;;;13.47;;
30335;SDS011;17142;47.990;7.846;2022-12-13T18:16:50;23.57;;;14.73;;
30335;SDS011;17142;47.990;7.846;2022-12-13T18:19:18;25.48;;;14.55;;
30335;SDS011;17142;47.990;7.846;2022-12-13T18:21:47;25.75;;;14.00;;
30335;SDS011;17142;47.990;7.846;2022-12-13T18:24:13;22.50;;;12.47;;
30335;SDS011;17142;47.990;7.846;2022-12-13T18:26:39;18.13;;;11.10;;
30335;SDS011;17142;47.990;7.846;2022-12-13T18:29:07;25.83;;;16.42;;
30335;SDS011;17142;47.990;7.846;2022-12-13T18:31:32;24.77;;;13.97;;
30335;SDS011;17142;47.990;7.846;2022-12-13T18:33:58;31.47;;;15.60;;
30335;SDS011;17142;47.990;7.846;2022-12-13T18:36:24;18.73;;;12.03;;
30335;SDS011;17142;47.990;7.846;2022-12-13T18:38:52;21.00;;;13.80;;
30335;SDS011;17142;47.990;7.846;2022-12-13T18:41:21;25.08;;;14.40;;
30335;SDS011;17142;47.990;7.846;2022-12-13T18:43:53;24.13;;;14.18;;
30335;SDS011;17142;47.990;7.846;2022-12-13T18:46:23;26.20;;;16.52;;
30335;SDS011;17142;47.990;7.846;2022-12-13T18:48:48;28.33;;;14.67;;
30335;SDS011;17142;47.990;7.846;2022-12-13T18:51:16;33.72;;;15.65;;
30335;SDS011;17142;47.990;7.846;2022-12-13T18:53:42;24.00;;;14.90;;
30335;SDS011;17142;47.990;7.846;2022-12-13T18:56:11;24.60;;;14.07;;
30335;SDS011;17142;47.990;7.846;2022-12-13T18:58:38;23.88;;;13.30;;
30335;SDS011;17142;47.990;7.846;2022-12-13T19:01:05;22.52;;;13.57;;
30335;SDS011;17142;47.990;7.846;2022-12-13T19:03:34;25.48;;;15.18;;
30335;SDS011;17142;47.990;7.846;2022-12-13T19:06:02;24.17;;;16.25;;
30335;SDS011;17142;47.990;7.846;2022-12-13T19:08:28;25.27;;;13.30;;
30335;SDS011;17142;47.990;7.846;2022-12-13T19:10:55;23.25;;;13.52;;
30335;SDS011;17142;47.990;7.846;2022-12-13T19:13:23;31.20;;;15.18;;
30335;SDS011;17142;47.990;7.846;2022-12-13T19:15:54;21.88;;;13.23;;
30335;SDS011;17142;47.990;7.846;2022-12-13T19:18:21;24.50;;;13.32;;
30335;SDS011;17142;47.990;7.846;2022-12-13T19:20:51;23.48;;;13.23;;
30335;SDS011;17142;47.990;7.846;2022-12-13T19:23:18;24.73;;;14.20;;
30335;SDS011;17142;47.990;7.846;2022-12-13T19:25:46;21.08;;;12.10;;
30335;SDS011;17142;47.990;7.846;2022-12-13T19:28:12;19.98;;;12.48;;
30335;SDS011;17142;47.990;7.846;2022-12-13T19:30:39;21.10;;;12.02;;
30335;SDS011;17142;47.990;7.846;2022-12-13T19:33:11;20.15;;;12.93;;
30335;SDS011;17142;47.990;7.846;2022-12-13T19:35:41;25.98;;;13.88;;
30335;SDS011;17142;47.990;7.846;2022-12-13T19:38:10;25.38;;;13.50;;
30335;SDS011;17142;47.990;7.846;2022-12-13T19:40:39;26.17;;;15.37;;
30335;SDS011;17142;47.990;7.846;2022-12-13T19:43:06;22.80;;;14.73;;
30335;SDS011;17142;47.990;7.846;2022-12-13T19:45:32;20.73;;;15.23;;
30335;SDS011;17142;47.990;7.846;2022-12-13T19:48:00;26.42;;;15.57;;
30335;SDS011;17142;47.990;7.846;2022-12-13T19:50:26;22.27;;;13.87;;
30335;SDS011;17142;47.990;7.846;2022-12-13T19:52:54;25.83;;;15.25;;
30335;SDS011;17142;47.990;7.846;2022-12-13T19:55:20;23.80;;;14.90;;
30335;SDS011;17142;47.990;7.846;2022-12-13T19:57:48;27.42;;;15.38;;
30335;SDS011;17142;47.990;7.846;2022-12-13T20:00:14;21.07;;;14.53;;
30335;SDS011;17142;47.990;7.846;2022-12-13T20:02:39;21.80;;;13.73;;
30335;SDS011;17142;47.990;7.846;2022-12-13T20:05:06;23.45;;;13.93;;
30335;SDS011;17142;47.990;7.846;2022-12-13T20:07:32;29.70;;;17.27;;
30335;SDS011;17142;47.990;7.846;2022-12-13T20:09:57;30.90;;;15.90;;
30335;SDS011;17142;47.990;7.846;2022-12-13T20:12:23;29.43;;;16.63;;
30335;SDS011;17142;47.990;7.846;2022-12-13T20:14:48;30.80;;;16.73;;
30335;SDS011;17142;47.990;7.846;2022-12-13T20:17:14;27.67;;;16.53;;
30335;SDS011;17142;47.990;7.846;2022-12-13T20:19:40;27.60;;;17.00;;
30335;SDS011;17142;47.990;7.846;2022-12-13T20:22:05;29.40;;;17.67;;
30335;SDS011;17142;47.990;7.846;2022-12-13T20:24:31;30.33;;;17.87;;
30335;SDS011;17142;47.990;7.846;2022-12-13T20:26:57;26.60;;;16.97;;
30335;SDS011;17142;47.990;7.846;2022-12-13T20:29:22;26.27;;;17.60;;
30335;SDS011;17142;47.990;7.846;2022-12-13T20:31:48;29.77;;;18.80;;
30335;SDS011;17142;47.990;7.846;2022-12-13T20:34:16;33.25;;;18.13;;
30335;SDS011;17142;47.990;7.846;2022-12-13T20:36:41;29.17;;;18.07;;
30335;SDS011;17142;47.990;7.846;2022-12-13T20:39:07;30.17;;;17.10;;
30335;SDS011;17142;47.990;7.846;2022-12-13T20:41:36;26.95;;;16.30;;
30335;SDS011;17142;47.990;7.846;2022-12-13T20:44:03;30.53;;;19.00;;
30335;SDS011;17142;47.990;7.846;2022-12-13T20:46:30;28.30;;;17.83;;
30335;SDS011;17142;47.990;7.846;2022-12-13T20:48:57;28.70;;;17.00;;
30335;SDS011;17142;47.990;7.846;2022-12-13T20:51:25;32.53;;;17.83;;
30335;SDS011;17142;47.990;7.846;2022-12-13T20:53:54;23.58;;;15.60;;
30335;SDS011;17142;47.990;7.846;2022-12-13T20:56:21;27.85;;;19.10;;
30335;SDS011;17142;47.990;7.846;2022-12-13T20:58:49;30.58;;;18.95;;
30335;SDS011;17142;47.990;7.846;2022-12-13T21:01:18;33.80;;;19.17;;
30335;SDS011;17142;47.990;7.846;2022-12-13T21:03:47;35.88;;;19.60;;
30335;SDS011;17142;47.990;7.846;2022-12-13T21:06:13;33.13;;;17.03;;
30335;SDS011;17142;47.990;7.846;2022-12-13T21:08:39;26.15;;;16.63;;
30335;SDS011;17142;47.990;7.846;2022-12-13T21:13:50;33.63;;;18.77;;
30335;SDS011;17142;47.990;7.846;2022-12-13T21:16:19;29.42;;;17.25;;
30335;SDS011;17142;47.990;7.846;2022-12-13T21:18:45;26.38;;;16.52;;
30335;SDS011;17142;47.990;7.846;2022-12-13T21:21:11;26.60;;;17.40;;
30335;SDS011;17142;47.990;7.846;2022-12-13T21:23:39;27.53;;;15.80;;
30335;SDS011;17142;47.990;7.846;2022-12-13T21:26:04;29.38;;;15.52;;
30335;SDS011;17142;47.990;7.846;2022-12-13T21:28:30;26.27;;;15.03;;
30335;SDS011;17142;47.990;7.846;2022-12-13T21:31:08;29.55;;;16.20;;
30335;SDS011;17142;47.990;7.846;2022-12-13T21:33:38;35.40;;;14.85;;
30335;SDS011;17142;47.990;7.846;2022-12-13T21:36:11;25.65;;;16.08;;
30335;SDS011;17142;47.990;7.846;2022-12-13T21:38:38;27.63;;;15.63;;
30335;SDS011;17142;47.990;7.846;2022-12-13T21:41:05;24.35;;;15.52;;
30335;SDS011;17142;47.990;7.846;2022-12-13T21:43:32;27.67;;;15.77;;
30335;SDS011;17142;47.990;7.846;2022-12-13T21:46:07;32.15;;;16.90;;
30335;SDS011;17142;47.990;7.846;2022-12-13T21:48:37;26.23;;;15.52;;
30335;SDS011;17142;47.990;7.846;2022-12-13T21:51:09;25.35;;;16.65;;
30335;SDS011;17142;47.990;7.846;2022-12-13T21:53:37;27.63;;;17.45;;
30335;SDS011;17142;47.990;7.846;2022-12-13T21:56:06;30.00;;;18.07;;
30335;SDS011;17142;47.990;7.846;2022-12-13T21:58:51;28.90;;;17.67;;
30335;SDS011;17142;47.990;7.846;2022-12-13T22:01:41;26.88;;;16.88;;
30335;SDS011;17142;47.990;7.846;2022-12-13T22:04:29;26.95;;;17.02;;
30335;SDS011;17142;47.990;7.846;2022-12-13T22:06:54;30.77;;;18.50;;
30335;SDS011;17142;47.990;7.846;2022-12-13T22:09:20;33.20;;;18.57;;
30335;SDS011;17142;47.990;7.846;2022-12-13T22:11:48;30.23;;;17.05;;
30335;SDS011;17142;47.990;7.846;2022-12-13T22:14:13;27.50;;;17.43;;
30335;SDS011;17142;47.990;7.846;2022-12-13T22:16:39;27.50;;;15.00;;
30335;SDS011;17142;47.990;7.846;2022-12-13T22:19:07;26.48;;;16.65;;
30335;SDS011;17142;47.990;7.846;2022-12-13T22:21:35;24.00;;;16.65;;
30335;SDS011;17142;47.990;7.846;2022-12-13T22:24:01;26.70;;;15.10;;
30335;SDS011;17142;47.990;7.846;2022-12-13T22:26:27;28.93;;;15.70;;
30335;SDS011;17142;47.990;7.846;2022-12-13T22:28:55;26.20;;;15.77;;
30335;SDS011;17142;47.990;7.846;2022-12-13T22:31:22;25.52;;;15.25;;
30335;SDS011;17142;47.990;7.846;2022-12-13T22:33:48;24.27;;;14.97;;
30335;SDS011;17142;47.990;7.846;2022-12-13T22:36:13;25.63;;;16.10;;
30335;SDS011;17142;47.990;7.846;2022-12-13T22:38:42;28.17;;;15.50;;
30335;SDS011;17142;47.990;7.846;2022-12-13T22:41:10;31.70;;;17.08;;
30335;SDS011;17142;47.990;7.846;2022-12-13T22:43:39;24.63;;;14.82;;
30335;SDS011;17142;47.990;7.846;2022-12-13T22:46:09;25.38;;;14.77;;
30335;SDS011;17142;47.990;7.846;2022-12-13T22:48:37;28.15;;;16.13;;
30335;SDS011;17142;47.990;7.846;2022-12-13T22:51:06;29.77;;;15.02;;
30335;SDS011;17142;47.990;7.846;2022-12-13T22:53:34;21.95;;;14.60;;
30335;SDS011;17142;47.990;7.846;2022-12-13T22:58:28;30.77;;;18.83;;
30335;SDS011;17142;47.990;7.846;2022-12-13T23:00:58;24.02;;;14.13;;
30335;SDS011;17142;47.990;7.846;2022-12-13T23:03:33;29.08;;;15.40;;
30335;SDS011;17142;47.990;7.846;2022-12-13T23:06:11;22.80;;;13.77;;
30335;SDS011;17142;47.990;7.846;2022-12-13T23:08:43;28.77;;;14.35;;
30335;SDS011;17142;47.990;7.846;2022-12-13T23:11:11;28.40;;;16.10;;